createdAt,value
2022-08-05T00:01:35.908Z,103107.69
2022-08-05T00:04:15.497Z,103102.38
2022-08-05T00:06:43.264Z,103096.22
2022-08-05T00:09:12.916Z,103072.44
2022-08-05T00:11:48.411Z,103059.19
2022-08-05T00:14:17.473Z,103056.41
2022-08-05T00:16:53.400Z,103065.28
2022-08-05T00:19:24.853Z,103063.53
2022-08-05T00:22:00.214Z,103060.06
2022-08-05T00:24:31.240Z,103057.25
2022-08-05T00:26:59.223Z,103053.72
2022-08-05T00:29:27.653Z,103064.41
2022-08-05T00:32:12.301Z,103075.13
2022-08-05T00:35:03.424Z,103082.22
2022-08-05T00:37:50.695Z,103088.41
2022-08-05T00:40:27.439Z,103095.56
2022-08-05T00:42:57.993Z,103108.00
2022-08-05T00:45:38.091Z,103103.63
2022-08-05T00:48:18.649Z,103102.75
2022-08-05T00:50:58.200Z,103102.00
2022-08-05T00:54:00.224Z,103093.31
2022-08-05T00:56:14.920Z,103079.34
2022-08-05T00:58:45.105Z,103093.63
2022-08-05T01:01:12.995Z,103106.06
2022-08-05T01:03:40.015Z,103004.38
2022-08-05T01:06:11.154Z,103017.53
2022-08-05T01:08:44.497Z,103004.28
2022-08-05T01:11:22.464Z,102990.31
2022-08-05T01:14:28.307Z,102999.16
2022-08-05T01:17:39.886Z,103013.84
2022-08-05T01:20:37.045Z,103007.41
2022-08-05T01:23:23.742Z,103005.44
2022-08-05T01:26:13.039Z,102990.16
2022-08-05T01:29:25.132Z,102986.47
2022-08-05T01:31:54.772Z,102965.25
2022-08-05T01:34:43.837Z,102943.91
2022-08-05T01:37:25.097Z,102912.06
2022-08-05T01:39:58.699Z,102906.72
2022-08-05T01:42:27.833Z,102900.50
2022-08-05T01:44:59.868Z,102890.66
2022-08-05T01:47:38.915Z,102867.53
2022-08-05T01:50:15.052Z,102865.69
2022-08-05T01:52:50.059Z,102861.16
2022-08-05T01:55:20.125Z,102852.31
2022-08-05T01:58:10.036Z,102835.47
2022-08-05T02:00:39.704Z,102813.28
2022-08-05T02:03:28.945Z,102785.09
2022-08-05T02:06:03.520Z,102781.63
2022-08-05T02:08:58.281Z,102785.97
2022-08-05T02:11:33.122Z,102792.19
2022-08-05T02:14:17.874Z,102778.09
2022-08-05T02:16:47.251Z,102763.31
2022-08-05T02:19:35.017Z,102766.91
2022-08-05T02:22:26.443Z,102757.16
2022-08-05T02:25:03.126Z,102736.78
2022-08-05T02:27:58.479Z,102717.47
2022-08-05T02:30:26.978Z,102726.41
2022-08-05T02:32:57.995Z,102701.56
2022-08-05T02:35:37.423Z,102692.09
2022-08-05T02:38:09.229Z,102680.59
2022-08-05T02:40:41.075Z,102684.22
2022-08-05T02:43:09.389Z,102683.56
2022-08-05T02:45:52.912Z,102695.88
2022-08-05T02:48:29.418Z,102690.72
2022-08-05T02:51:01.363Z,102710.41
2022-08-05T02:53:39.438Z,102729.06
2022-08-05T02:56:15.672Z,102735.38
2022-08-05T02:58:51.639Z,102738.09
2022-08-05T03:01:27.478Z,102766.22
2022-08-05T03:04:02.155Z,102765.28
2022-08-05T03:06:55.755Z,102755.31
2022-08-05T03:09:36.045Z,102754.25
2022-08-05T03:12:05.612Z,102748.97
2022-08-05T03:14:32.928Z,102753.41
2022-08-05T03:17:00.271Z,102757.69
2022-08-05T03:19:34.230Z,102750.59
2022-08-05T03:22:05.136Z,102755.81
2022-08-05T03:24:47.034Z,102749.59
2022-08-05T03:27:14.724Z,102749.56
2022-08-05T03:30:07.185Z,102753.84
2022-08-05T03:32:32.770Z,102744.13
2022-08-05T03:35:00.777Z,102734.31
2022-08-05T03:37:27.779Z,102728.19
2022-08-05T03:40:01.518Z,102717.50
2022-08-05T03:42:32.811Z,102693.72
2022-08-05T03:45:21.030Z,102687.56
2022-08-05T03:47:49.991Z,102674.38
2022-08-05T03:50:16.871Z,102668.25
2022-08-05T03:55:06.866Z,102656.88
2022-08-05T03:56:18.055Z,102657.06
2022-08-05T03:59:00.009Z,102662.59
2022-08-05T04:01:32.318Z,102665.47
2022-08-05T04:04:09.723Z,102675.19
2022-08-05T04:06:38.435Z,102671.59
2022-08-05T04:09:20.312Z,102674.25
2022-08-05T04:11:53.233Z,102682.28
2022-08-05T04:14:29.994Z,102688.53
2022-08-05T04:17:00.213Z,102683.41
2022-08-05T04:19:28.728Z,102688.00
2022-08-05T04:22:08.748Z,102692.53
2022-08-05T04:24:52.419Z,102698.75
2022-08-05T04:27:41.703Z,102702.34
2022-08-05T04:30:08.918Z,102713.91
2022-08-05T04:32:35.949Z,102717.41
2022-08-05T04:35:04.676Z,102725.38
2022-08-05T04:38:01.208Z,102729.81
2022-08-05T04:40:19.870Z,102735.94
2022-08-05T04:42:46.683Z,102739.50
2022-08-05T04:45:14.169Z,102740.34
2022-08-05T04:47:49.816Z,102749.13
2022-08-05T04:50:34.402Z,102761.38
2022-08-05T04:53:04.472Z,102762.19
2022-08-05T04:56:15.557Z,102765.66
2022-08-05T04:58:21.602Z,102773.50
2022-08-05T05:00:50.706Z,102777.78
2022-08-05T05:03:20.273Z,102784.59
2022-08-05T05:06:36.190Z,102780.00
2022-08-05T05:08:37.349Z,102786.72
2022-08-05T05:11:10.538Z,102787.44
2022-08-05T05:13:43.243Z,102787.19
2022-08-05T05:16:10.705Z,102782.50
2022-08-05T05:18:38.965Z,102777.03
2022-08-05T05:21:05.973Z,102778.56
2022-08-05T05:24:01.824Z,102766.88
2022-08-05T05:26:19.797Z,102750.00
2022-08-05T05:28:55.667Z,102752.53
2022-08-05T05:31:23.957Z,102732.97
2022-08-05T05:33:59.543Z,102732.03
2022-08-05T05:36:29.952Z,102713.47
2022-08-05T05:38:57.808Z,102687.84
2022-08-05T05:41:25.055Z,102688.88
2022-08-05T05:44:27.019Z,102677.50
2022-08-05T05:46:53.624Z,102671.28
2022-08-05T05:49:23.005Z,102667.81
2022-08-05T05:51:50.615Z,102662.59
2022-08-05T05:54:17.768Z,102664.44
2022-08-05T05:56:47.375Z,102663.59
2022-08-05T05:59:14.322Z,102674.97
2022-08-05T06:01:57.792Z,102669.66
2022-08-05T06:04:25.101Z,102662.69
2022-08-05T06:06:52.160Z,102660.66
2022-08-05T06:09:26.607Z,102660.72
2022-08-05T06:12:06.488Z,102671.97
2022-08-05T06:14:36.756Z,102662.47
2022-08-05T06:17:21.990Z,102653.72
2022-08-05T06:19:57.028Z,102630.28
2022-08-05T06:22:34.045Z,102572.75
2022-08-05T06:25:24.672Z,102405.84
2022-08-05T06:28:10.541Z,102265.78
2022-08-05T06:30:36.072Z,102185.81
2022-08-05T06:33:02.939Z,102146.25
2022-08-05T06:36:08.025Z,102117.91
2022-08-05T06:38:17.521Z,102103.69
2022-08-05T06:41:03.879Z,102092.00
2022-08-05T06:43:57.440Z,102082.66
2022-08-05T06:46:18.501Z,102099.00
2022-08-05T06:48:56.235Z,102068.53
2022-08-05T06:51:29.794Z,102039.09
2022-08-05T06:54:02.782Z,101980.22
2022-08-05T06:56:34.190Z,101886.63
2022-08-05T06:59:03.999Z,101816.91
2022-08-05T07:01:36.896Z,101792.91
2022-08-05T07:04:04.159Z,101786.72
2022-08-05T07:06:31.814Z,101786.38
2022-08-05T07:08:59.607Z,101785.88
2022-08-05T07:11:31.155Z,101774.38
2022-08-05T07:14:20.689Z,101761.56
2022-08-05T07:18:01.761Z,101765.63
2022-08-05T07:20:31.396Z,101764.13
2022-08-05T07:22:35.558Z,101765.06
2022-08-05T07:25:22.994Z,101766.75
2022-08-05T07:27:57.195Z,101744.03
2022-08-05T07:30:32.119Z,101746.28
2022-08-05T07:33:00.888Z,101745.50
2022-08-05T07:36:03.458Z,101745.75
2022-08-05T07:38:32.835Z,101741.81
2022-08-05T07:42:09.648Z,101746.34
2022-08-05T07:43:56.293Z,101748.66
2022-08-05T07:46:26.157Z,101753.22
2022-08-05T07:49:02.628Z,101757.22
2022-08-05T07:51:36.949Z,101746.03
2022-08-05T07:54:08.502Z,101749.56
2022-08-05T07:56:59.969Z,101742.81
2022-08-05T07:59:38.716Z,101733.31
2022-08-05T08:02:15.403Z,101729.38
2022-08-05T08:04:48.698Z,101738.72
2022-08-05T08:07:22.450Z,101727.09
2022-08-05T08:09:52.535Z,101729.97
2022-08-05T08:12:35.584Z,101728.81
2022-08-05T08:15:09.659Z,101728.88
2022-08-05T08:17:46.252Z,101720.34
2022-08-05T08:20:44.353Z,101719.00
2022-08-05T08:23:59.809Z,101713.69
2022-08-05T08:26:02.401Z,101719.75
2022-08-05T08:28:36.293Z,101711.56
2022-08-05T08:31:09.838Z,101708.94
2022-08-05T08:33:41.841Z,101715.09
2022-08-05T08:36:39.213Z,101730.31
2022-08-05T08:38:57.509Z,101732.06
2022-08-05T08:41:52.479Z,101738.94
2022-08-05T08:45:22.445Z,101744.88
2022-08-05T08:47:21.693Z,101758.47
2022-08-05T08:50:05.915Z,101766.69
2022-08-05T08:52:51.806Z,101784.19
2022-08-05T08:56:02.492Z,101777.38
2022-08-05T08:58:09.943Z,101762.25
2022-08-05T09:00:40.606Z,101752.81
2022-08-05T09:03:09.789Z,101744.53
2022-08-05T09:05:38.719Z,101742.91
2022-08-05T09:08:27.265Z,101735.72
2022-08-05T09:10:57.457Z,101745.28
2022-08-05T09:13:24.607Z,101737.00
2022-08-05T09:15:58.362Z,101741.50
2022-08-05T09:18:25.741Z,101744.00
2022-08-05T09:20:52.464Z,101763.34
2022-08-05T09:23:23.447Z,101772.31
2022-08-05T09:26:15.854Z,101773.44
2022-08-05T09:28:48.406Z,101778.50
2022-08-05T09:31:43.899Z,101774.41
2022-08-05T09:34:06.495Z,101770.78
2022-08-05T09:36:54.194Z,101765.69
2022-08-05T09:39:27.709Z,101773.28
2022-08-05T09:42:11.434Z,101767.47
2022-08-05T09:44:50.536Z,101774.22
2022-08-05T09:47:20.844Z,101770.78
2022-08-05T09:50:00.436Z,101778.22
2022-08-05T09:52:31.336Z,101779.63
2022-08-05T09:55:57.947Z,101785.22
2022-08-05T09:57:58.603Z,101780.03
2022-08-05T10:00:26.744Z,101782.78
2022-08-05T10:02:55.084Z,101773.38
2022-08-05T10:05:27.770Z,101790.13
2022-08-05T10:08:35.704Z,101786.97
2022-08-05T10:10:45.275Z,101780.97
2022-08-05T10:13:27.489Z,101788.19
2022-08-05T10:16:37.965Z,101793.94
2022-08-05T10:19:23.746Z,101782.34
2022-08-05T10:22:09.091Z,101786.50
2022-08-05T10:24:42.962Z,101797.03
2022-08-05T10:27:14.960Z,101799.03
2022-08-05T10:30:07.260Z,101800.13
2022-08-05T10:32:51.907Z,101810.94
2022-08-05T10:35:19.400Z,101812.38
2022-08-05T10:37:47.150Z,101817.25
2022-08-05T10:40:45.010Z,101826.44
2022-08-05T10:43:35.870Z,101828.03
2022-08-05T10:46:08.155Z,101828.25
2022-08-05T10:48:57.302Z,101824.44
2022-08-05T10:51:28.946Z,101827.78
2022-08-05T10:54:01.877Z,101838.88
2022-08-05T10:56:49.453Z,101829.31
2022-08-05T11:00:02.189Z,101841.94
2022-08-05T11:02:37.717Z,101839.19
2022-08-05T11:05:10.431Z,101844.91
2022-08-05T11:08:02.967Z,101857.91
2022-08-05T11:10:38.406Z,101855.50
2022-08-05T11:13:54.819Z,101857.38
2022-08-05T11:16:33.776Z,101861.00
2022-08-05T11:20:10.965Z,101860.50
2022-08-05T11:22:42.379Z,101872.84
2022-08-05T11:26:05.212Z,101887.28
2022-08-05T11:28:24.352Z,101875.00
2022-08-05T11:31:06.151Z,101884.31
2022-08-05T11:33:46.653Z,101893.50
2022-08-05T11:36:34.578Z,101897.09
2022-08-05T11:39:06.914Z,101889.28
2022-08-05T11:42:00.776Z,101912.38
2022-08-05T11:44:53.287Z,101902.88
2022-08-05T11:47:15.172Z,101909.41
2022-08-05T11:50:00.517Z,101923.22
2022-08-05T11:52:31.025Z,101920.56
2022-08-05T11:54:59.381Z,101924.19
2022-08-05T11:57:39.321Z,101923.84
2022-08-05T12:00:30.380Z,101940.75
2022-08-05T12:02:57.650Z,101951.66
2022-08-05T12:05:36.382Z,101956.97
2022-08-05T12:08:11.736Z,101965.94
2022-08-05T12:10:46.623Z,101965.28
2022-08-05T12:13:27.624Z,101972.97
2022-08-05T12:16:14.923Z,101969.75
2022-08-05T12:18:49.593Z,101971.56
2022-08-05T12:21:32.530Z,101976.81
2022-08-05T12:24:10.795Z,101982.81
2022-08-05T12:26:52.815Z,101988.41
2022-08-05T12:29:22.946Z,101987.16
2022-08-05T12:31:53.414Z,101991.31
2022-08-05T12:34:25.734Z,101996.34
2022-08-05T12:36:53.614Z,102004.47
2022-08-05T12:39:21.428Z,101995.56
2022-08-05T12:41:48.919Z,102005.88
2022-08-05T12:44:32.601Z,102003.44
2022-08-05T12:47:02.706Z,102001.66
2022-08-05T12:50:05.001Z,102018.94
2022-08-05T12:52:39.760Z,102008.41
2022-08-05T12:55:25.322Z,102018.31
2022-08-05T12:58:49.099Z,102013.81
2022-08-05T13:02:02.844Z,102018.34
2022-08-05T13:03:32.281Z,102028.06
2022-08-05T13:06:02.747Z,102024.03
2022-08-05T13:08:32.444Z,102030.97
2022-08-05T13:11:01.361Z,102035.81
2022-08-05T13:14:06.685Z,102038.59
2022-08-05T13:16:17.116Z,102055.59
2022-08-05T13:18:57.911Z,102057.53
2022-08-05T13:21:28.178Z,102067.31
2022-08-05T13:23:55.696Z,102068.50
2022-08-05T13:26:30.246Z,102072.06
2022-08-05T13:28:59.158Z,102073.88
2022-08-05T13:31:34.034Z,102070.91
2022-08-05T13:34:24.148Z,102076.66
2022-08-05T13:36:53.193Z,102059.28
2022-08-05T13:40:13.080Z,102074.03
2022-08-05T13:42:07.592Z,102082.41
2022-08-05T13:44:46.263Z,102084.25
2022-08-05T13:47:35.086Z,102080.34
2022-08-05T13:50:04.578Z,102086.13
2022-08-05T13:52:35.512Z,102086.34
2022-08-05T13:55:07.641Z,102083.75
2022-08-05T13:57:50.851Z,102101.22
2022-08-05T14:00:19.652Z,102093.16
2022-08-05T14:02:54.216Z,102110.28
2022-08-05T14:05:48.359Z,102100.84
2022-08-05T14:08:19.894Z,102111.03
2022-08-05T14:10:48.464Z,102115.53
2022-08-05T14:13:15.623Z,102120.69
2022-08-05T14:16:07.159Z,102129.13
2022-08-05T14:18:29.474Z,102148.94
2022-08-05T14:20:56.217Z,102129.34
2022-08-05T14:23:25.831Z,102127.50
2022-08-05T14:25:57.956Z,102122.63
2022-08-05T14:28:28.757Z,102128.31
2022-08-05T14:30:57.408Z,102139.78
2022-08-05T14:33:24.437Z,102136.47
2022-08-05T14:35:53.935Z,102139.00
2022-08-05T14:38:27.761Z,102143.16
2022-08-05T14:41:05.618Z,102142.13
2022-08-05T14:44:02.361Z,102141.34
2022-08-05T14:46:28.741Z,102145.19
2022-08-05T14:48:58.956Z,102143.19
2022-08-05T14:51:30.645Z,102131.56
2022-08-05T14:54:27.121Z,102141.03
2022-08-05T14:56:46.843Z,102142.69
2022-08-05T14:59:14.827Z,102146.38
2022-08-05T15:01:48.529Z,102152.19
2022-08-05T15:04:17.159Z,102154.41
2022-08-05T15:06:49.426Z,102161.06
2022-08-05T15:09:50.561Z,102164.09
2022-08-05T15:12:05.791Z,102147.69
2022-08-05T15:14:34.595Z,102172.84
2022-08-05T15:17:45.030Z,102173.31
2022-08-05T15:19:57.400Z,102179.03
2022-08-05T15:22:26.921Z,102183.22
2022-08-05T15:24:55.527Z,102185.78
2022-08-05T15:27:22.456Z,102187.63
2022-08-05T15:29:56.699Z,102179.19
2022-08-05T15:32:27.099Z,102183.84
2022-08-05T15:34:56.610Z,102178.56
2022-08-05T15:38:08.385Z,102181.63
2022-08-05T15:41:00.101Z,102181.53
2022-08-05T15:43:09.192Z,102178.78
2022-08-05T15:45:45.703Z,102177.19
2022-08-05T15:48:14.324Z,102176.63
2022-08-05T15:50:43.868Z,102174.88
2022-08-05T15:53:13.607Z,102180.63
2022-08-05T15:56:02.818Z,102173.19
2022-08-05T15:58:29.293Z,102179.75
2022-08-05T16:01:11.919Z,102188.38
2022-08-05T16:03:43.619Z,102190.22
2022-08-05T16:06:11.396Z,102190.22
2022-08-05T16:08:38.734Z,102184.94
2022-08-05T16:11:08.012Z,102192.47
2022-08-05T16:13:35.391Z,102200.69
2022-08-05T16:16:05.939Z,102192.00
2022-08-05T16:18:33.120Z,102202.94
2022-08-05T16:21:04.216Z,102204.19
2022-08-05T16:23:33.122Z,102213.47
2022-08-05T16:26:19.102Z,102219.69
2022-08-05T16:28:54.497Z,102215.88
2022-08-05T16:31:22.102Z,102214.28
2022-08-05T16:33:49.899Z,102208.84
2022-08-05T16:36:20.516Z,102216.06
2022-08-05T16:38:54.953Z,102221.13
2022-08-05T16:42:27.782Z,102219.13
2022-08-05T16:44:11.553Z,102219.28
2022-08-05T16:46:41.147Z,102223.78
2022-08-05T16:49:10.125Z,102223.72
2022-08-05T16:51:42.778Z,102228.13
2022-08-05T16:54:25.726Z,102225.72
2022-08-05T16:56:54.223Z,102225.59
2022-08-05T16:59:21.034Z,102227.53
2022-08-05T17:01:53.956Z,102233.59
2022-08-05T17:04:27.376Z,102243.41
2022-08-05T17:07:01.165Z,102245.06
2022-08-05T17:09:57.495Z,102249.91
2022-08-05T17:12:22.776Z,102245.47
2022-08-05T17:15:06.177Z,102251.47
2022-08-05T17:17:42.306Z,102245.72
2022-08-05T17:20:14.675Z,102247.53
2022-08-05T17:22:41.806Z,102249.44
2022-08-05T17:25:22.135Z,102242.28
2022-08-05T17:27:56.164Z,102256.69
2022-08-05T17:30:28.147Z,102249.97
2022-08-05T17:32:55.541Z,102250.25
2022-08-05T17:35:22.417Z,102250.53
2022-08-05T17:37:50.483Z,102252.34
2022-08-05T17:40:22.308Z,102255.22
2022-08-05T17:42:51.996Z,102263.25
2022-08-05T17:45:22.921Z,102261.81
2022-08-05T17:47:55.030Z,102262.00
2022-08-05T17:50:28.406Z,102270.09
2022-08-05T17:53:01.353Z,102271.94
2022-08-05T17:55:37.686Z,102277.13
2022-08-05T17:58:11.026Z,102279.34
2022-08-05T18:00:45.338Z,102279.56
2022-08-05T18:06:11.474Z,102288.56
2022-08-05T18:08:52.412Z,102296.91
2022-08-05T18:11:24.793Z,102296.91
2022-08-05T18:14:01.230Z,102306.78
2022-08-05T18:16:30.926Z,102309.66
2022-08-05T18:18:57.736Z,102310.22
2022-08-05T18:21:26.092Z,102321.69
2022-08-05T18:23:54.197Z,102321.94
2022-08-05T18:26:29.593Z,102322.13
2022-08-05T18:28:59.820Z,102321.47
2022-08-05T18:31:33.817Z,102336.88
2022-08-05T18:34:06.190Z,102332.56
2022-08-05T18:36:38.916Z,102337.16
2022-08-05T18:39:09.764Z,102339.00
2022-08-05T18:42:06.294Z,102338.25
2022-08-05T18:44:49.280Z,102347.09
2022-08-05T18:47:22.691Z,102356.25
2022-08-05T18:50:42.186Z,102353.91
2022-08-05T18:53:19.170Z,102352.38
2022-08-05T18:55:49.686Z,102362.50
2022-08-05T18:58:16.650Z,102361.97
2022-08-05T19:00:43.667Z,102371.97
2022-08-05T19:03:14.918Z,102381.09
2022-08-05T19:06:13.613Z,102375.28
2022-08-05T19:08:30.935Z,102379.34
2022-08-05T19:10:59.418Z,102391.03
2022-08-05T19:13:29.551Z,102396.75
2022-08-05T19:16:04.077Z,102405.16
2022-08-05T19:18:31.922Z,102410.72
2022-08-05T19:20:59.648Z,102414.56
2022-08-05T19:24:07.034Z,102416.56
2022-08-05T19:26:13.993Z,102429.09
2022-08-05T19:28:44.141Z,102434.56
2022-08-05T19:31:13.359Z,102448.81
2022-08-05T19:33:48.470Z,102454.25
2022-08-05T19:36:24.467Z,102452.69
2022-08-05T19:38:51.351Z,102464.31
2022-08-05T19:41:22.197Z,102469.84
2022-08-05T19:44:12.918Z,102478.81
2022-08-05T19:46:40.948Z,102494.78
2022-08-05T19:49:12.530Z,102502.91
2022-08-05T19:52:05.301Z,102502.16
2022-08-05T19:54:32.918Z,102513.69
2022-08-05T19:57:06.669Z,102519.03
2022-08-05T19:59:55.306Z,102536.69
2022-08-05T20:02:30.365Z,102540.03
2022-08-05T20:04:59.621Z,102540.78
2022-08-05T20:07:48.701Z,102545.09
2022-08-05T20:10:17.403Z,102544.97
2022-08-05T20:12:49.318Z,102540.44
2022-08-05T20:15:48.892Z,102549.06
2022-08-05T20:18:10.569Z,102552.28
2022-08-05T20:20:57.032Z,102554.59
2022-08-05T20:23:40.450Z,102545.66
2022-08-05T20:26:16.248Z,102546.50
2022-08-05T20:28:48.804Z,102551.84
2022-08-05T20:31:16.974Z,102554.72
2022-08-05T20:33:45.195Z,102562.03
2022-08-05T20:36:14.366Z,102570.09
2022-08-05T20:38:54.141Z,102568.47
2022-08-05T20:41:27.346Z,102580.03
2022-08-05T20:44:17.551Z,102588.69
2022-08-05T20:46:47.585Z,102592.06
2022-08-05T20:49:14.951Z,102597.19
2022-08-05T20:51:53.646Z,102597.13
2022-08-05T20:54:21.208Z,102593.78
2022-08-05T20:56:49.076Z,102603.72
2022-08-05T20:59:26.248Z,102601.34
2022-08-05T21:01:53.210Z,102621.91
2022-08-05T21:04:19.949Z,102626.53
2022-08-05T21:06:46.786Z,102629.28
2022-08-05T21:09:14.996Z,102643.50
2022-08-05T21:12:09.345Z,102652.47
2022-08-05T21:14:35.264Z,102658.72
2022-08-05T21:17:05.253Z,102669.31
2022-08-05T21:19:46.977Z,102678.19
2022-08-05T21:22:18.438Z,102688.81
2022-08-05T21:24:51.866Z,102705.56
2022-08-05T21:27:25.269Z,102705.66
2022-08-05T21:29:57.589Z,102711.00
2022-08-05T21:32:27.140Z,102712.81
2022-08-05T21:35:08.643Z,102727.00
2022-08-05T21:37:42.714Z,102738.50
2022-08-05T21:40:14.477Z,102739.53
2022-08-05T21:42:44.157Z,102748.38
2022-08-05T21:45:12.097Z,102765.16
2022-08-05T21:47:56.953Z,102779.31
2022-08-05T21:50:26.526Z,102796.09
2022-08-05T21:52:58.970Z,102815.44
2022-08-05T21:56:01.278Z,102826.03
2022-08-05T21:58:19.400Z,102841.88
2022-08-05T22:00:51.176Z,102850.63
2022-08-05T22:03:18.398Z,102874.38
2022-08-05T22:06:06.311Z,102878.81
2022-08-05T22:08:35.105Z,102889.41
2022-08-05T22:11:01.863Z,102903.47
2022-08-05T22:14:34.437Z,102919.28
2022-08-05T22:16:42.148Z,102930.69
2022-08-05T22:20:00.389Z,102947.41
2022-08-05T22:22:02.438Z,102972.88
2022-08-05T22:24:51.768Z,102978.16
2022-08-05T22:28:09.915Z,102991.41
2022-08-05T22:30:24.785Z,103007.22
2022-08-05T22:32:59.637Z,103030.06
2022-08-05T22:35:26.496Z,103046.78
2022-08-05T22:38:05.596Z,103058.19
2022-08-05T22:40:32.607Z,103074.00
2022-08-05T22:42:59.858Z,103092.44
2022-08-05T22:45:27.161Z,103110.88
2022-08-05T22:47:57.979Z,103124.88
2022-08-05T22:50:27.765Z,103148.59
2022-08-05T22:52:55.139Z,103163.50
2022-08-05T22:55:23.449Z,103178.44
2022-08-05T22:57:52.038Z,103193.38
2022-08-05T23:00:21.530Z,103217.06
2022-08-05T23:02:49.891Z,103220.53
2022-08-05T23:05:18.373Z,103229.31
2022-08-05T23:07:48.887Z,103244.25
2022-08-05T23:10:19.663Z,103260.03
2022-08-05T23:12:54.385Z,103265.31
2022-08-05T23:15:27.080Z,103274.06
2022-08-05T23:18:02.434Z,103288.09
2022-08-05T23:20:33.166Z,103301.25
2022-08-05T23:23:03.476Z,103302.16
2022-08-05T23:25:52.816Z,103303.03
2022-08-05T23:28:19.910Z,103315.31
2022-08-05T23:30:53.322Z,103315.31
2022-08-05T23:33:25.595Z,103319.69
2022-08-05T23:36:06.190Z,103315.25
2022-08-05T23:38:36.810Z,103316.13
2022-08-05T23:41:03.568Z,103324.00
2022-08-05T23:43:37.370Z,103327.53
2022-08-05T23:46:19.855Z,103340.63
2022-08-05T23:49:00.973Z,103350.28
2022-08-05T23:51:52.858Z,103352.94
2022-08-05T23:54:25.271Z,103355.53
2022-08-05T23:56:54.117Z,103363.41
2022-08-05T23:59:20.881Z,103376.53
